sensor_id;sensor_type;location;lat;lon;timestamp;pressure;altitude;pressure_sealevel;temperature;humidity
36788;BME280;22738;45.560;9.434;2023-01-25T00:00:30;101133.31;;;7.22;100.00
36788;BME280;22738;45.560;9.434;2023-01-25T00:07:11;101127.28;;;7.24;100.00
36788;BME280;22738;45.560;9.434;2023-01-25T00:13:53;101126.50;;;7.20;100.00
36788;BME280;22738;45.560;9.434;2023-01-25T00:20:34;101117.94;;;7.19;100.00
36788;BME280;22738;45.560;9.434;2023-01-25T00:27:15;101118.75;;;7.20;100.00
36788;BME280;22738;45.560;9.434;2023-01-25T00:40:41;101110.09;;;7.22;100.00
36788;BME280;22738;45.560;9.434;2023-01-25T00:47:22;101109.28;;;7.22;100.00
36788;BME280;22738;45.560;9.434;2023-01-25T00:54:03;101114.28;;;7.27;100.00
36788;BME280;22738;45.560;9.434;2023-01-25T01:00:44;101124.78;;;7.20;100.00
36788;BME280;22738;45.560;9.434;2023-01-25T01:07:26;101148.16;;;7.14;100.00
36788;BME280;22738;45.560;9.434;2023-01-25T01:14:07;101144.44;;;7.25;100.00
36788;BME280;22738;45.560;9.434;2023-01-25T01:20:51;101149.50;;;7.28;100.00
36788;BME280;22738;45.560;9.434;2023-01-25T01:27:38;101141.22;;;7.16;100.00
36788;BME280;22738;45.560;9.434;2023-01-25T01:34:23;101122.38;;;7.14;100.00
36788;BME280;22738;45.560;9.434;2023-01-25T01:41:05;101111.16;;;7.15;100.00
36788;BME280;22738;45.560;9.434;2023-01-25T01:47:46;101119.72;;;7.17;100.00
36788;BME280;22738;45.560;9.434;2023-01-25T02:01:20;101133.88;;;7.03;100.00
36788;BME280;22738;45.560;9.434;2023-01-25T02:08:02;101126.03;;;7.07;100.00
36788;BME280;22738;45.560;9.434;2023-01-25T02:14:51;101127.53;;;7.14;100.00
36788;BME280;22738;45.560;9.434;2023-01-25T02:21:38;101128.53;;;7.10;100.00
36788;BME280;22738;45.560;9.434;2023-01-25T02:28:41;101125.09;;;7.10;100.00
36788;BME280;22738;45.560;9.434;2023-01-25T02:35:41;101126.09;;;7.04;100.00
36788;BME280;22738;45.560;9.434;2023-01-25T02:42:23;101142.41;;;7.05;100.00
36788;BME280;22738;45.560;9.434;2023-01-25T02:49:06;101126.91;;;7.06;100.00
36788;BME280;22738;45.560;9.434;2023-01-25T02:55:47;101130.16;;;7.13;100.00
36788;BME280;22738;45.560;9.434;2023-01-25T03:02:28;101121.47;;;7.15;100.00
36788;BME280;22738;45.560;9.434;2023-01-25T03:09:12;101123.91;;;7.22;100.00
36788;BME280;22738;45.560;9.434;2023-01-25T03:16:01;101110.81;;;7.28;100.00
36788;BME280;22738;45.560;9.434;2023-01-25T03:22:43;101102.28;;;7.26;100.00
36788;BME280;22738;45.560;9.434;2023-01-25T03:29:25;101083.53;;;7.20;100.00
36788;BME280;22738;45.560;9.434;2023-01-25T03:36:06;101082.91;;;7.12;100.00
36788;BME280;22738;45.560;9.434;2023-01-25T03:42:48;101075.34;;;7.06;100.00
36788;BME280;22738;45.560;9.434;2023-01-25T03:49:29;101091.78;;;7.02;100.00
36788;BME280;22738;45.560;9.434;2023-01-25T03:56:15;101069.59;;;6.98;100.00
36788;BME280;22738;45.560;9.434;2023-01-25T04:03:07;101081.75;;;6.93;100.00
36788;BME280;22738;45.560;9.434;2023-01-25T04:09:49;101068.84;;;6.95;100.00
36788;BME280;22738;45.560;9.434;2023-01-25T04:16:32;101038.06;;;6.89;100.00
36788;BME280;22738;45.560;9.434;2023-01-25T04:23:41;101023.53;;;6.86;100.00
36788;BME280;22738;45.560;9.434;2023-01-25T04:30:23;101023.66;;;6.83;100.00
36788;BME280;22738;45.560;9.434;2023-01-25T04:37:04;101021.34;;;6.74;100.00
36788;BME280;22738;45.560;9.434;2023-01-25T04:43:52;101027.31;;;6.75;100.00
36788;BME280;22738;45.560;9.434;2023-01-25T04:50:35;101018.78;;;6.74;100.00
36788;BME280;22738;45.560;9.434;2023-01-25T04:57:16;101017.19;;;6.69;100.00
36788;BME280;22738;45.560;9.434;2023-01-25T05:04:03;101025.06;;;6.64;100.00
36788;BME280;22738;45.560;9.434;2023-01-25T05:10:50;101029.94;;;6.73;100.00
36788;BME280;22738;45.560;9.434;2023-01-25T05:17:31;101028.97;;;6.77;100.00
36788;BME280;22738;45.560;9.434;2023-01-25T05:24:14;101028.88;;;6.80;100.00
36788;BME280;22738;45.560;9.434;2023-01-25T05:30:56;101045.19;;;6.81;100.00
36788;BME280;22738;45.560;9.434;2023-01-25T05:37:41;101040.06;;;6.79;100.00
36788;BME280;22738;45.560;9.434;2023-01-25T05:44:29;101030.59;;;6.81;100.00
36788;BME280;22738;45.560;9.434;2023-01-25T05:51:10;101022.81;;;6.83;100.00
36788;BME280;22738;45.560;9.434;2023-01-25T05:57:54;101018.38;;;6.88;100.00
36788;BME280;22738;45.560;9.434;2023-01-25T06:04:36;101015.72;;;6.89;100.00
36788;BME280;22738;45.560;9.434;2023-01-25T06:11:21;101020.81;;;6.91;100.00
36788;BME280;22738;45.560;9.434;2023-01-25T06:18:04;101001.28;;;6.84;100.00
36788;BME280;22738;45.560;9.434;2023-01-25T06:25:00;100989.97;;;6.89;100.00
36788;BME280;22738;45.560;9.434;2023-01-25T06:31:41;100997.63;;;6.92;100.00
36788;BME280;22738;45.560;9.434;2023-01-25T06:38:22;100992.47;;;6.92;100.00
36788;BME280;22738;45.560;9.434;2023-01-25T06:45:03;100982.22;;;6.89;100.00
36788;BME280;22738;45.560;9.434;2023-01-25T06:51:44;100980.66;;;6.85;100.00
36788;BME280;22738;45.560;9.434;2023-01-25T06:58:26;100985.97;;;6.79;100.00
36788;BME280;22738;45.560;9.434;2023-01-25T07:05:08;100983.44;;;6.78;100.00
36788;BME280;22738;45.560;9.434;2023-01-25T07:11:49;100970.50;;;6.79;100.00
36788;BME280;22738;45.560;9.434;2023-01-25T07:18:31;100972.19;;;6.80;100.00
36788;BME280;22738;45.560;9.434;2023-01-25T07:25:13;100967.91;;;6.79;100.00
36788;BME280;22738;45.560;9.434;2023-01-25T07:31:54;100969.47;;;6.85;100.00
36788;BME280;22738;45.560;9.434;2023-01-25T07:38:35;100951.22;;;6.92;100.00
36788;BME280;22738;45.560;9.434;2023-01-25T07:45:17;100951.31;;;6.89;100.00
36788;BME280;22738;45.560;9.434;2023-01-25T07:51:59;100958.16;;;6.90;100.00
36788;BME280;22738;45.560;9.434;2023-01-25T07:58:40;100951.31;;;6.89;100.00
36788;BME280;22738;45.560;9.434;2023-01-25T08:05:21;100954.88;;;6.85;100.00
36788;BME280;22738;45.560;9.434;2023-01-25T08:12:02;100965.06;;;6.88;100.00
36788;BME280;22738;45.560;9.434;2023-01-25T08:18:46;100963.03;;;6.99;100.00
36788;BME280;22738;45.560;9.434;2023-01-25T08:25:28;100962.94;;;7.55;100.00
36788;BME280;22738;45.560;9.434;2023-01-25T08:32:09;100950.00;;;8.04;100.00
36788;BME280;22738;45.560;9.434;2023-01-25T08:38:55;100940.50;;;8.31;100.00
36788;BME280;22738;45.560;9.434;2023-01-25T08:45:37;100935.59;;;8.68;100.00
36788;BME280;22738;45.560;9.434;2023-01-25T08:52:18;100931.53;;;10.27;100.00
36788;BME280;22738;45.560;9.434;2023-01-25T08:58:59;100921.31;;;9.65;100.00
36788;BME280;22738;45.560;9.434;2023-01-25T09:05:41;100931.19;;;9.15;100.00
36788;BME280;22738;45.560;9.434;2023-01-25T09:12:22;100925.50;;;8.84;100.00
36788;BME280;22738;45.560;9.434;2023-01-25T09:19:04;100927.38;;;9.23;100.00
36788;BME280;22738;45.560;9.434;2023-01-25T09:25:45;100908.03;;;9.72;100.00
36788;BME280;22738;45.560;9.434;2023-01-25T09:32:26;100908.66;;;9.97;100.00
36788;BME280;22738;45.560;9.434;2023-01-25T09:39:11;100917.28;;;10.55;100.00
36788;BME280;22738;45.560;9.434;2023-01-25T09:45:52;100913.09;;;9.75;100.00
36788;BME280;22738;45.560;9.434;2023-01-25T09:53:14;100903.19;;;9.45;100.00
36788;BME280;22738;45.560;9.434;2023-01-25T10:00:00;100904.00;;;9.25;100.00
36788;BME280;22738;45.560;9.434;2023-01-25T10:06:55;100908.75;;;9.76;100.00
36788;BME280;22738;45.560;9.434;2023-01-25T10:13:39;100911.50;;;9.91;100.00
36788;BME280;22738;45.560;9.434;2023-01-25T10:27:41;100899.00;;;11.11;100.00
36788;BME280;22738;45.560;9.434;2023-01-25T10:34:46;100884.38;;;11.44;100.00
36788;BME280;22738;45.560;9.434;2023-01-25T10:41:35;100890.09;;;11.51;100.00
36788;BME280;22738;45.560;9.434;2023-01-25T10:48:27;100868.56;;;11.15;100.00
36788;BME280;22738;45.560;9.434;2023-01-25T10:55:17;100862.19;;;10.50;100.00
36788;BME280;22738;45.560;9.434;2023-01-25T11:22:49;100824.63;;;10.59;100.00
36788;BME280;22738;45.560;9.434;2023-01-25T11:29:31;100815.13;;;10.41;100.00
36788;BME280;22738;45.560;9.434;2023-01-25T11:36:32;100802.34;;;10.19;100.00
36788;BME280;22738;45.560;9.434;2023-01-25T11:43:46;100784.97;;;10.02;100.00
36788;BME280;22738;45.560;9.434;2023-01-25T11:57:51;100758.53;;;10.15;100.00
36788;BME280;22738;45.560;9.434;2023-01-25T12:12:11;100718.44;;;10.57;100.00
36788;BME280;22738;45.560;9.434;2023-01-25T12:41:05;100660.97;;;10.82;100.00
36788;BME280;22738;45.560;9.434;2023-01-25T12:47:29;100657.09;;;11.06;100.00
36788;BME280;22738;45.560;9.434;2023-01-25T12:54:24;100658.66;;;10.93;100.00
36788;BME280;22738;45.560;9.434;2023-01-25T13:08:41;100628.09;;;10.83;100.00
36788;BME280;22738;45.560;9.434;2023-01-25T13:15:42;100612.94;;;10.75;100.00
36788;BME280;22738;45.560;9.434;2023-01-25T13:43:22;100604.25;;;11.56;100.00
36788;BME280;22738;45.560;9.434;2023-01-25T13:50:24;100597.78;;;11.31;100.00
36788;BME280;22738;45.560;9.434;2023-01-25T13:57:12;100598.97;;;11.26;100.00
36788;BME280;22738;45.560;9.434;2023-01-25T14:04:02;100589.75;;;11.20;100.00
36788;BME280;22738;45.560;9.434;2023-01-25T14:10:44;100582.06;;;11.19;100.00
36788;BME280;22738;45.560;9.434;2023-01-25T14:17:25;100574.06;;;11.06;100.00
36788;BME280;22738;45.560;9.434;2023-01-25T14:24:10;100566.63;;;11.00;100.00
36788;BME280;22738;45.560;9.434;2023-01-25T14:30:53;100570.22;;;10.82;100.00
36788;BME280;22738;45.560;9.434;2023-01-25T14:37:40;100560.44;;;10.87;100.00
36788;BME280;22738;45.560;9.434;2023-01-25T14:44:22;100565.13;;;10.81;100.00
36788;BME280;22738;45.560;9.434;2023-01-25T14:51:14;100567.84;;;10.62;100.00
36788;BME280;22738;45.560;9.434;2023-01-25T14:57:58;100558.81;;;10.36;100.00
36788;BME280;22738;45.560;9.434;2023-01-25T15:05:00;100548.72;;;10.15;100.00
36788;BME280;22738;45.560;9.434;2023-01-25T15:11:42;100543.56;;;9.96;100.00
36788;BME280;22738;45.560;9.434;2023-01-25T15:18:54;100537.78;;;9.74;100.00
36788;BME280;22738;45.560;9.434;2023-01-25T15:32:33;100532.78;;;9.52;100.00
36788;BME280;22738;45.560;9.434;2023-01-25T15:39:17;100534.44;;;9.36;100.00
36788;BME280;22738;45.560;9.434;2023-01-25T15:45:59;100537.75;;;9.21;100.00
36788;BME280;22738;45.560;9.434;2023-01-25T15:52:42;100538.47;;;9.06;100.00
36788;BME280;22738;45.560;9.434;2023-01-25T15:59:24;100535.69;;;8.92;100.00
36788;BME280;22738;45.560;9.434;2023-01-25T16:13:00;100528.53;;;8.59;100.00
36788;BME280;22738;45.560;9.434;2023-01-25T16:19:42;100527.69;;;8.40;100.00
36788;BME280;22738;45.560;9.434;2023-01-25T16:26:26;100530.19;;;8.22;100.00
36788;BME280;22738;45.560;9.434;2023-01-25T16:33:08;100533.09;;;7.94;100.00
36788;BME280;22738;45.560;9.434;2023-01-25T16:39:49;100526.78;;;7.59;100.00
36788;BME280;22738;45.560;9.434;2023-01-25T16:46:32;100515.31;;;7.25;100.00
36788;BME280;22738;45.560;9.434;2023-01-25T16:53:13;100513.44;;;7.06;100.00
36788;BME280;22738;45.560;9.434;2023-01-25T16:59:54;100502.59;;;6.98;100.00
36788;BME280;22738;45.560;9.434;2023-01-25T17:06:41;100494.78;;;6.78;100.00
36788;BME280;22738;45.560;9.434;2023-01-25T17:13:23;100497.38;;;6.55;100.00
36788;BME280;22738;45.560;9.434;2023-01-25T17:20:04;100491.00;;;6.42;100.00
36788;BME280;22738;45.560;9.434;2023-01-25T17:26:49;100486.19;;;6.33;100.00
36788;BME280;22738;45.560;9.434;2023-01-25T17:33:31;100478.72;;;6.25;100.00
36788;BME280;22738;45.560;9.434;2023-01-25T17:40:12;100477.19;;;5.97;100.00
36788;BME280;22738;45.560;9.434;2023-01-25T17:46:53;100475.72;;;5.90;100.00
36788;BME280;22738;45.560;9.434;2023-01-25T17:53:34;100479.34;;;5.83;100.00
36788;BME280;22738;45.560;9.434;2023-01-25T18:00:15;100476.00;;;5.81;100.00
36788;BME280;22738;45.560;9.434;2023-01-25T18:06:56;100461.88;;;5.67;100.00
36788;BME280;22738;45.560;9.434;2023-01-25T18:13:41;100463.19;;;5.28;100.00
36788;BME280;22738;45.560;9.434;2023-01-25T18:20:23;100460.53;;;5.30;100.00
36788;BME280;22738;45.560;9.434;2023-01-25T18:27:20;100462.22;;;5.04;100.00
36788;BME280;22738;45.560;9.434;2023-01-25T18:34:01;100466.34;;;5.10;100.00
36788;BME280;22738;45.560;9.434;2023-01-25T18:40:42;100459.88;;;5.25;100.00
36788;BME280;22738;45.560;9.434;2023-01-25T18:47:29;100448.75;;;5.24;100.00
36788;BME280;22738;45.560;9.434;2023-01-25T18:54:11;100448.16;;;5.42;100.00
36788;BME280;22738;45.560;9.434;2023-01-25T19:01:00;100428.13;;;5.52;100.00
36788;BME280;22738;45.560;9.434;2023-01-25T19:07:42;100432.06;;;5.62;100.00
36788;BME280;22738;45.560;9.434;2023-01-25T19:14:24;100432.38;;;5.77;100.00
36788;BME280;22738;45.560;9.434;2023-01-25T19:21:06;100424.97;;;5.68;100.00
36788;BME280;22738;45.560;9.434;2023-01-25T19:27:48;100416.69;;;5.60;100.00
36788;BME280;22738;45.560;9.434;2023-01-25T19:34:29;100410.28;;;5.47;100.00
36788;BME280;22738;45.560;9.434;2023-01-25T19:41:16;100391.91;;;5.33;100.00
36788;BME280;22738;45.560;9.434;2023-01-25T19:47:57;100390.34;;;4.77;100.00
36788;BME280;22738;45.560;9.434;2023-01-25T19:54:38;100380.44;;;4.91;100.00
36788;BME280;22738;45.560;9.434;2023-01-25T20:01:21;100385.50;;;4.94;100.00
36788;BME280;22738;45.560;9.434;2023-01-25T20:08:03;100367.59;;;4.91;100.00
36788;BME280;22738;45.560;9.434;2023-01-25T20:14:45;100357.16;;;4.97;100.00
36788;BME280;22738;45.560;9.434;2023-01-25T20:21:28;100356.47;;;4.92;100.00
36788;BME280;22738;45.560;9.434;2023-01-25T20:28:10;100348.59;;;4.96;100.00
36788;BME280;22738;45.560;9.434;2023-01-25T20:34:51;100344.41;;;4.94;100.00
36788;BME280;22738;45.560;9.434;2023-01-25T20:41:33;100339.06;;;5.00;100.00
36788;BME280;22738;45.560;9.434;2023-01-25T20:48:14;100332.81;;;5.07;100.00
36788;BME280;22738;45.560;9.434;2023-01-25T20:54:55;100325.59;;;5.18;100.00
36788;BME280;22738;45.560;9.434;2023-01-25T21:01:37;100306.50;;;5.25;100.00
36788;BME280;22738;45.560;9.434;2023-01-25T21:08:18;100309.31;;;5.19;100.00
36788;BME280;22738;45.560;9.434;2023-01-25T21:14:59;100295.84;;;5.13;100.00
36788;BME280;22738;45.560;9.434;2023-01-25T21:21:41;100302.44;;;4.95;100.00
36788;BME280;22738;45.560;9.434;2023-01-25T21:28:22;100304.41;;;4.87;100.00
36788;BME280;22738;45.560;9.434;2023-01-25T21:35:03;100293.91;;;4.93;100.00
36788;BME280;22738;45.560;9.434;2023-01-25T21:41:44;100284.50;;;5.18;100.00
36788;BME280;22738;45.560;9.434;2023-01-25T21:48:25;100279.94;;;5.26;100.00
36788;BME280;22738;45.560;9.434;2023-01-25T21:55:25;100272.41;;;4.97;100.00
36788;BME280;22738;45.560;9.434;2023-01-25T22:02:12;100262.47;;;4.86;100.00
36788;BME280;22738;45.560;9.434;2023-01-25T22:08:54;100263.78;;;4.98;100.00
36788;BME280;22738;45.560;9.434;2023-01-25T22:15:35;100244.97;;;4.97;100.00
36788;BME280;22738;45.560;9.434;2023-01-25T22:22:16;100237.31;;;4.96;100.00
36788;BME280;22738;45.560;9.434;2023-01-25T22:28:58;100234.69;;;4.73;100.00
36788;BME280;22738;45.560;9.434;2023-01-25T22:35:40;100230.00;;;4.61;100.00
36788;BME280;22738;45.560;9.434;2023-01-25T22:42:21;100221.59;;;4.56;100.00
36788;BME280;22738;45.560;9.434;2023-01-25T22:49:02;100220.53;;;4.61;100.00
36788;BME280;22738;45.560;9.434;2023-01-25T22:55:44;100212.38;;;4.75;100.00
36788;BME280;22738;45.560;9.434;2023-01-25T23:02:25;100202.00;;;4.78;100.00
36788;BME280;22738;45.560;9.434;2023-01-25T23:09:06;100196.34;;;4.68;100.00
36788;BME280;22738;45.560;9.434;2023-01-25T23:15:48;100179.34;;;4.89;100.00
36788;BME280;22738;45.560;9.434;2023-01-25T23:22:29;100168.75;;;4.98;100.00
36788;BME280;22738;45.560;9.434;2023-01-25T23:29:11;100166.19;;;4.98;100.00
36788;BME280;22738;45.560;9.434;2023-01-25T23:35:52;100161.09;;;4.73;100.00
36788;BME280;22738;45.560;9.434;2023-01-25T23:42:34;100154.25;;;4.49;100.00
36788;BME280;22738;45.560;9.434;2023-01-25T23:49:15;100140.19;;;4.34;100.00
36788;BME280;22738;45.560;9.434;2023-01-25T23:55:59;100141.66;;;4.42;100.00
